Time;durP1;ratioP1;P1;durP2;ratioP2;P2;SDS_P1;SDS_P2;PMS_P1;PMS_P2;Temp;Humidity;BMP_temperature;BMP_pressure;BME280_temperature;BME280_humidity;BME280_pressure;Samples;Min_cycle;Max_cycle;Signal;HPM_P1;HPM_P2
2022/11/08 00:02:22;;;;;;;;;6.00;5.00;;;;;13.02;78.80;100794.88;5014273;28;9313;-64
2022/11/08 00:04:49;;;;;;;;;4.00;4.00;;;;;12.95;78.91;100799.47;5040356;28;9360;-64
2022/11/08 00:15:37;;;;;;;;;2.00;2.00;;;;;12.86;79.24;100793.47;5033163;28;9164;-64
2022/11/08 00:18:05;;;;;;;;;8.00;3.67;;;;;12.78;79.28;100795.56;5031218;28;9344;-65
2022/11/08 00:20:31;;;;;;;;;3.00;3.00;;;;;12.78;79.25;100796.38;5034054;28;9374;-65
2022/11/08 00:22:58;;;;;;;;;3.67;3.67;;;;;12.79;79.23;100789.94;5045935;28;9942;-65
2022/11/08 00:25:24;;;;;;;;;7.67;3.67;;;;;12.71;79.41;100795.56;5038049;28;9247;-65
2022/11/08 00:27:50;;;;;;;;;2.00;2.00;;;;;12.71;79.45;100779.34;5047619;28;9292;-64
2022/11/08 00:30:17;;;;;;;;;2.33;2.33;;;;;12.78;79.44;100785.59;5041837;28;9293;-64
2022/11/08 00:32:43;;;;;;;;;5.00;2.00;;;;;12.76;79.17;100784.97;5030724;28;9238;-64
2022/11/08 00:35:09;;;;;;;;;2.67;2.67;;;;;12.74;79.31;100783.50;5047348;28;9940;-65
2022/11/08 00:37:36;;;;;;;;;3.33;3.00;;;;;12.73;79.30;100777.28;5043733;28;9335;-66
2022/11/08 00:40:02;;;;;;;;;2.00;1.00;;;;;12.69;79.27;100776.03;5045311;28;9441;-66
2022/11/08 00:42:29;;;;;;;;;1.00;1.00;;;;;12.68;79.38;100777.09;5041742;28;9300;-66
2022/11/08 00:44:55;;;;;;;;;3.00;2.00;;;;;12.70;78.85;100785.81;5034673;28;9167;-65
2022/11/08 00:47:22;;;;;;;;;2.67;2.33;;;;;12.64;79.51;100781.25;5042503;28;10053;-66
2022/11/08 00:49:48;;;;;;;;;4.00;4.00;;;;;12.64;79.40;100781.25;5039120;28;9391;-66
2022/11/08 00:52:14;;;;;;;;;4.67;2.33;;;;;12.60;79.46;100785.41;5004947;28;1034687;-66
2022/11/08 00:54:41;;;;;;;;;5.33;4.33;;;;;12.59;79.20;100784.56;5051608;28;8838;-66
2022/11/08 00:57:07;;;;;;;;;2.00;2.00;;;;;12.61;79.54;100774.38;5045327;28;9187;-66
2022/11/08 00:59:34;;;;;;;;;2.33;1.00;;;;;12.65;79.46;100776.69;5031504;28;9289;-65
2022/11/08 01:02:00;;;;;;;;;5.67;3.00;;;;;12.51;79.56;100781.25;5035654;28;9229;-66
2022/11/08 01:04:26;;;;;;;;;5.00;5.00;;;;;12.47;79.57;100767.31;5035330;28;9429;-66
2022/11/08 01:06:53;;;;;;;;;5.00;3.00;;;;;12.41;79.87;100772.75;5043773;28;9172;-65
2022/11/08 01:09:19;;;;;;;;;2.00;1.00;;;;;12.45;79.87;100769.41;5046173;28;9391;-66
2022/11/08 01:11:46;;;;;;;;;2.67;2.67;;;;;12.40;80.04;100768.34;5044245;28;9201;-66
2022/11/08 01:14:13;;;;;;;;;3.00;3.00;;;;;12.39;79.92;100767.53;5041436;28;9635;-65
2022/11/08 01:16:41;;;;;;;;;5.33;2.67;;;;;12.41;79.93;100762.78;5043161;28;9239;-66
2022/11/08 01:19:08;;;;;;;;;5.67;5.00;;;;;12.34;80.02;100765.47;5048687;28;9221;-65
2022/11/08 01:21:35;;;;;;;;;2.67;2.67;;;;;12.30;80.08;100763.38;5034154;28;9356;-65
2022/11/08 01:24:02;;;;;;;;;3.67;1.33;;;;;12.28;80.16;100750.13;5040446;28;9229;-66
2022/11/08 01:26:29;;;;;;;;;5.00;5.00;;;;;12.25;80.08;100755.91;5042562;28;9227;-65
2022/11/08 01:28:56;;;;;;;;;3.00;2.00;;;;;12.29;80.54;100745.53;5047701;28;10210;-65
2022/11/08 01:31:27;;;;;;;;;3.00;3.00;;;;;12.24;80.10;100743.47;5040007;28;9477;-65
2022/11/08 01:33:53;;;;;;;;;3.00;2.67;;;;;12.22;80.18;100745.53;5047028;28;9366;-65
2022/11/08 01:36:23;;;;;;;;;2.00;1.67;;;;;12.22;80.22;100745.53;5047020;28;10107;-62
2022/11/08 01:38:49;;;;;;;;;2.67;1.00;;;;;12.15;80.42;100725.81;5041914;28;9236;-65
2022/11/08 01:41:17;;;;;;;;;2.33;2.33;;;;;12.22;80.66;100731.22;5044895;28;9329;-65
2022/11/08 01:43:52;;;;;;;;;2.00;2.00;;;;;12.20;80.24;100717.94;5042788;28;9412;-65
2022/11/08 01:46:18;;;;;;;;;3.67;3.33;;;;;12.20;80.21;100712.53;5049084;28;9882;-64
2022/11/08 01:48:54;;;;;;;;;3.33;2.00;;;;;12.10;80.27;100706.72;5043343;28;9312;-64
2022/11/08 01:51:26;;;;;;;;;5.33;2.67;;;;;12.11;80.52;100711.91;5048329;28;9247;-63
2022/11/08 01:53:53;;;;;;;;;3.67;2.00;;;;;12.11;80.46;100709.22;5041827;28;9373;-64
2022/11/08 01:56:20;;;;;;;;;2.00;1.33;;;;;12.12;80.28;100702.78;5036364;28;9216;-64
2022/11/08 01:58:51;;;;;;;;;2.33;1.33;;;;;12.09;80.37;100703.19;5043837;28;9243;-64
2022/11/08 02:01:18;;;;;;;;;2.33;2.33;;;;;12.04;80.39;100694.91;5038000;28;9170;-65
2022/11/08 02:03:45;;;;;;;;;3.00;3.00;;;;;12.02;80.70;100698.81;5040311;28;9259;-65
2022/11/08 02:06:12;;;;;;;;;5.00;5.00;;;;;12.02;80.59;100694.25;5047255;28;9326;-64
2022/11/08 02:08:41;;;;;;;;;3.00;3.00;;;;;11.97;80.58;100698.63;5042069;28;9440;-65
2022/11/08 02:11:12;;;;;;;;;2.00;2.00;;;;;11.97;80.66;100695.94;5035860;28;9295;-63
2022/11/08 02:13:39;;;;;;;;;6.00;4.00;;;;;12.01;80.42;100697.19;5041967;28;9379;-65
2022/11/08 02:16:11;;;;;;;;;3.33;2.00;;;;;12.00;80.42;100692.81;5047418;28;9434;-64
2022/11/08 02:18:38;;;;;;;;;3.00;3.00;;;;;11.98;80.61;100694.88;5050297;28;10135;-64
2022/11/08 02:21:14;;;;;;;;;2.00;2.00;;;;;11.95;80.58;100693.44;5049217;28;9227;-64
2022/11/08 02:23:48;;;;;;;;;4.00;3.00;;;;;11.99;80.45;100680.34;5042123;28;10101;-64
2022/11/08 02:26:17;;;;;;;;;4.67;3.00;;;;;12.00;80.55;100676.63;5044186;28;9325;-63
2022/11/08 02:28:47;;;;;;;;;2.25;2.00;;;;;11.98;80.45;100686.78;5045411;28;9398;-63
2022/11/08 02:31:16;;;;;;;;;7.00;4.33;;;;;11.94;80.58;100683.66;5041486;28;9506;-65
2022/11/08 02:33:43;;;;;;;;;3.00;3.00;;;;;11.90;80.70;100671.63;5043928;28;9393;-65
2022/11/08 02:36:13;;;;;;;;;4.33;4.00;;;;;11.80;80.99;100671.19;5046818;28;9351;-64
2022/11/08 02:38:43;;;;;;;;;1.33;1.33;;;;;11.76;81.29;100672.66;5037470;28;9236;-64
2022/11/08 02:41:10;;;;;;;;;7.33;4.33;;;;;11.74;81.13;100667.44;5041619;28;9427;-64
2022/11/08 02:43:36;;;;;;;;;4.00;4.00;;;;;11.68;81.21;100673.69;5042964;28;9463;-65
2022/11/08 02:46:03;;;;;;;;;2.50;2.50;;;;;11.64;81.61;100664.34;5046860;28;9557;-65
2022/11/08 02:48:30;;;;;;;;;2.67;2.67;;;;;11.67;81.45;100669.31;5035962;28;9543;-65
2022/11/08 02:50:56;;;;;;;;;5.00;5.00;;;;;11.69;81.27;100666.41;5049180;28;9397;-64
2022/11/08 02:53:22;;;;;;;;;3.00;3.00;;;;;11.75;81.13;100662.88;5039644;28;9532;-65
2022/11/08 02:55:49;;;;;;;;;3.25;3.00;;;;;11.76;80.93;100659.16;5046814;28;9388;-65
2022/11/08 02:58:15;;;;;;;;;6.50;6.50;;;;;11.82;80.69;100655.63;5036810;28;9482;-64
2022/11/08 03:00:42;;;;;;;;;3.50;3.50;;;;;11.77;80.76;100644.63;5046200;28;9312;-65
2022/11/08 03:03:09;;;;;;;;;3.33;2.00;;;;;11.75;80.79;100644.00;5044687;28;9477;-65
2022/11/08 03:05:35;;;;;;;;;2.00;2.00;;;;;11.70;80.90;100633.00;5044241;28;9430;-65
2022/11/08 03:08:01;;;;;;;;;2.00;2.00;;;;;11.70;80.76;100638.41;5047363;28;9462;-65
2022/11/08 03:10:28;;;;;;;;;6.00;2.00;;;;;11.75;80.71;100631.38;5045488;28;9329;-64
2022/11/08 03:12:55;;;;;;;;;6.33;4.67;;;;;11.75;80.48;100635.91;5049136;28;9420;-64
2022/11/08 03:15:22;;;;;;;;;5.00;2.00;;;;;11.73;80.64;100629.91;5053754;28;9309;-64
2022/11/08 03:17:48;;;;;;;;;2.00;2.00;;;;;11.75;80.38;100628.69;5049559;28;9382;-64
2022/11/08 03:20:15;;;;;;;;;4.00;1.00;;;;;11.82;80.19;100615.16;5040515;28;9452;-65
2022/11/08 03:22:42;;;;;;;;;5.33;3.33;;;;;11.79;80.10;100621.00;5047866;28;9307;-64
2022/11/08 03:25:08;;;;;;;;;3.00;2.00;;;;;11.85;80.06;100604.00;5039595;28;10037;-63
2022/11/08 03:27:35;;;;;;;;;5.00;3.00;;;;;11.83;79.90;100600.72;5048548;28;9302;-64
2022/11/08 03:30:01;;;;;;;;;3.25;2.75;;;;;11.85;79.72;100599.44;5049521;28;9324;-63
2022/11/08 03:32:28;;;;;;;;;4.33;3.00;;;;;11.76;79.97;100591.75;5053288;28;9444;-63
2022/11/08 03:34:54;;;;;;;;;1.67;1.00;;;;;11.82;79.97;100586.34;5045585;28;9399;-63
2022/11/08 03:37:22;;;;;;;;;3.50;2.00;;;;;11.81;79.66;100573.06;5064071;28;9308;-64
2022/11/08 03:39:48;;;;;;;;;2.00;2.00;;;;;11.80;79.73;100574.94;5043816;28;9433;-63
2022/11/08 03:42:14;;;;;;;;;3.00;2.00;;;;;11.79;79.87;100575.97;5050674;28;9509;-64
2022/11/08 03:44:41;;;;;;;;;3.00;3.00;;;;;11.83;79.28;100568.34;5051772;28;9362;-64
2022/11/08 03:47:08;;;;;;;;;4.00;2.33;;;;;11.70;79.79;100563.72;5039154;28;10082;-64
2022/11/08 03:49:34;;;;;;;;;2.00;2.00;;;;;11.74;79.65;100561.44;5037476;28;9400;-65
2022/11/08 03:52:01;;;;;;;;;3.00;3.00;;;;;11.70;79.93;100558.34;5052078;28;9374;-64
2022/11/08 03:54:27;;;;;;;;;3.75;3.75;;;;;11.70;79.93;100558.34;5039575;28;9474;-65
2022/11/08 03:56:53;;;;;;;;;6.25;3.75;;;;;11.63;80.11;100546.75;5040727;28;9446;-65
2022/11/08 03:59:20;;;;;;;;;5.00;2.33;;;;;11.66;79.96;100550.88;5043673;28;9476;-64
2022/11/08 04:05:53;;;;;;;;;5.00;3.00;;;;;11.75;79.88;100542.38;5033330;28;9265;-65
2022/11/08 04:08:19;;;;;;;;;1.67;1.33;;;;;11.76;79.83;100525.16;5036275;28;9392;-64
2022/11/08 04:10:46;;;;;;;;;4.00;2.00;;;;;11.73;79.63;100527.44;5039320;28;10066;-64
2022/11/08 04:15:57;;;;;;;;;2.33;2.33;;;;;11.62;79.96;100521.63;5041017;28;9433;-64
2022/11/08 04:21:21;;;;;;;;;2.33;2.33;;;;;11.69;79.80;100523.50;5039997;28;9388;-63
2022/11/08 04:23:49;;;;;;;;;1.00;1.00;;;;;11.71;79.50;100522.28;5043741;28;9486;-63
2022/11/08 04:26:17;;;;;;;;;2.00;2.00;;;;;11.70;79.64;100517.06;5047037;28;9385;-65
2022/11/08 04:28:44;;;;;;;;;5.50;4.00;;;;;11.71;79.39;100516.03;5047258;28;9366;-64
2022/11/08 04:31:17;;;;;;;;;5.00;5.00;;;;;11.73;79.40;100501.31;5040163;28;9604;-64
2022/11/08 04:33:44;;;;;;;;;4.33;4.33;;;;;11.72;79.22;100517.72;5041888;28;9492;-64
2022/11/08 04:36:15;;;;;;;;;4.00;2.00;;;;;11.75;78.80;100507.34;5050143;28;9328;-64
2022/11/08 04:38:42;;;;;;;;;3.00;2.00;;;;;11.78;78.73;100508.75;5049863;28;10094;-62
2022/11/08 04:41:11;;;;;;;;;6.00;3.67;;;;;11.73;78.71;100511.25;5037828;28;9253;-64
2022/11/08 04:43:37;;;;;;;;;5.00;4.00;;;;;11.65;78.73;100498.81;5047149;28;9316;-64
2022/11/08 04:46:11;;;;;;;;;3.67;3.67;;;;;11.70;78.88;100501.72;5036575;28;9382;-64
2022/11/08 04:48:38;;;;;;;;;1.33;1.33;;;;;11.60;78.68;100498.63;5037500;28;9504;-64
2022/11/08 04:51:08;;;;;;;;;3.25;2.00;;;;;11.57;78.62;100494.47;5048950;28;10114;-64
2022/11/08 04:53:35;;;;;;;;;4.00;4.00;;;;;11.60;78.20;100483.28;5047024;28;9441;-65
2022/11/08 04:56:04;;;;;;;;;3.00;3.00;;;;;11.58;78.29;100473.75;5033991;28;9436;-64
2022/11/08 04:58:42;;;;;;;;;2.00;2.00;;;;;11.66;77.97;100472.69;5044539;28;9568;-65
2022/11/08 05:01:11;;;;;;;;;2.00;2.00;;;;;11.75;77.46;100468.72;5045113;28;9366;-65
2022/11/08 05:03:37;;;;;;;;;2.33;2.00;;;;;11.70;77.39;100463.97;5035756;28;9371;-64
2022/11/08 05:06:09;;;;;;;;;2.00;2.00;;;;;11.70;77.51;100460.44;5042528;28;9335;-64
2022/11/08 05:08:35;;;;;;;;;2.75;2.75;;;;;11.73;77.23;100457.34;5051060;28;9304;-64
2022/11/08 05:11:04;;;;;;;;;2.67;2.67;;;;;11.73;77.11;100452.78;5047228;28;9444;-64
2022/11/08 05:13:31;;;;;;;;;1.00;1.00;;;;;11.81;76.99;100440.94;5034599;28;9322;-64
2022/11/08 05:16:04;;;;;;;;;1.00;1.00;;;;;11.87;76.92;100446.34;5045921;28;9379;-64
2022/11/08 05:18:32;;;;;;;;;2.25;2.25;;;;;11.76;76.63;100446.13;5039921;28;9242;-65
2022/11/08 05:23:47;;;;;;;;;3.50;3.50;;;;;11.72;76.77;100451.13;5045764;28;9557;-66
2022/11/08 05:26:15;;;;;;;;;3.25;1.00;;;;;11.73;76.55;100436.59;5051011;28;9635;-65
2022/11/08 05:28:41;;;;;;;;;4.00;4.00;;;;;11.68;76.53;100438.28;5049178;28;9608;-65
2022/11/08 05:31:08;;;;;;;;;2.25;1.75;;;;;11.68;76.57;100433.72;5042452;28;9538;-64
2022/11/08 05:33:35;;;;;;;;;2.25;2.25;;;;;11.65;76.26;100434.13;5037046;28;9315;-65
2022/11/08 05:36:03;;;;;;;;;2.00;2.00;;;;;11.67;76.63;100423.97;5049760;28;9484;-64
2022/11/08 05:38:32;;;;;;;;;7.67;2.00;;;;;11.68;76.14;100420.22;5035182;28;9455;-65
2022/11/08 05:41:10;;;;;;;;;2.00;2.00;;;;;11.70;76.17;100423.53;5044291;28;9473;-63
2022/11/08 05:43:37;;;;;;;;;0.50;0.50;;;;;11.70;76.21;100422.69;5034420;28;10075;-64
2022/11/08 05:46:03;;;;;;;;;2.50;2.50;;;;;11.64;76.08;100416.28;5044008;28;9353;-64
2022/11/08 05:48:30;;;;;;;;;2.25;2.25;;;;;11.62;76.00;100410.28;5047548;28;9519;-64
2022/11/08 05:50:56;;;;;;;;;2.25;2.25;;;;;11.58;76.30;100414.44;5041219;28;9465;-63
2022/11/08 05:53:23;;;;;;;;;1.67;1.67;;;;;11.68;75.84;100420.22;5047977;28;9604;-65
2022/11/08 05:55:49;;;;;;;;;3.00;2.00;;;;;11.64;76.03;100408.22;5030329;28;9442;-65
2022/11/08 05:58:16;;;;;;;;;3.00;3.00;;;;;11.64;75.66;100408.22;5045011;28;9529;-65
2022/11/08 06:00:42;;;;;;;;;2.50;1.25;;;;;11.67;75.85;100406.94;5042600;28;9566;-65
2022/11/08 06:03:08;;;;;;;;;2.00;2.00;;;;;11.57;76.16;100419.00;5040803;28;9443;-65
2022/11/08 06:05:35;;;;;;;;;1.33;1.33;;;;;11.56;75.86;100405.75;5033924;28;11776;-65
2022/11/08 06:08:02;;;;;;;;;2.50;2.50;;;;;11.59;75.75;100402.63;5041208;28;9312;-65
2022/11/08 06:10:28;;;;;;;;;3.00;2.00;;;;;11.59;75.73;100392.69;5039578;28;9473;-65
2022/11/08 06:12:59;;;;;;;;;5.00;1.33;;;;;11.59;75.44;100394.53;5045536;28;9550;-64
2022/11/08 06:15:26;;;;;;;;;2.00;1.00;;;;;11.62;75.35;100386.00;5042537;28;9411;-65
2022/11/08 06:17:53;;;;;;;;;2.25;2.00;;;;;11.67;75.24;100382.69;5044361;28;9444;-64
2022/11/08 06:20:19;;;;;;;;;2.00;2.00;;;;;11.63;75.01;100383.13;5041773;28;9458;-64
2022/11/08 06:22:46;;;;;;;;;1.00;1.00;;;;;11.63;74.61;100377.72;5043248;28;9329;-65
2022/11/08 06:25:12;;;;;;;;;1.67;1.67;;;;;11.55;75.07;100382.53;5046955;28;9292;-64
2022/11/08 06:27:39;;;;;;;;;2.75;2.50;;;;;11.50;74.89;100385.84;5043662;28;9411;-65
2022/11/08 06:30:06;;;;;;;;;1.33;1.00;;;;;11.60;74.73;100382.72;5044843;28;9473;-66
2022/11/08 06:32:33;;;;;;;;;0.67;0.67;;;;;11.67;74.34;100375.44;5049500;28;9475;-65
2022/11/08 06:34:59;;;;;;;;;2.00;2.00;;;;;11.63;74.17;100374.22;5034558;28;9227;-66
2022/11/08 06:37:26;;;;;;;;;2.00;2.00;;;;;11.59;74.22;100381.06;5044412;28;10081;-65
2022/11/08 06:39:53;;;;;;;;;1.00;1.00;;;;;11.67;73.83;100382.69;5047852;28;9476;-65
2022/11/08 06:42:19;;;;;;;;;3.33;2.00;;;;;11.68;73.56;100376.25;5038485;28;9377;-65
2022/11/08 06:44:46;;;;;;;;;2.33;2.00;;;;;11.62;73.46;100378.75;5044250;28;9269;-65
2022/11/08 06:47:13;;;;;;;;;2.33;2.33;;;;;11.65;73.54;100369.41;5045186;28;9300;-65
2022/11/08 06:49:40;;;;;;;;;2.00;2.00;;;;;11.60;73.56;100364.66;5039328;28;9431;-65
2022/11/08 06:52:06;;;;;;;;;2.00;2.00;;;;;11.58;73.56;100365.91;5042346;28;9255;-65
2022/11/08 06:54:33;;;;;;;;;1.00;1.00;;;;;11.55;73.51;100356.41;5035968;28;9502;-65
2022/11/08 06:57:00;;;;;;;;;2.00;1.67;;;;;11.61;73.52;100371.72;5036177;28;9303;-65
2022/11/08 06:59:28;;;;;;;;;1.00;1.00;;;;;11.69;73.10;100377.91;5029510;28;9327;-66
2022/11/08 07:01:55;;;;;;;;;2.00;2.00;;;;;11.76;72.73;100389.50;5029941;28;9994;-66
2022/11/08 07:04:22;;;;;;;;;2.67;1.00;;;;;11.68;72.79;100373.56;5040739;28;9258;-65
2022/11/08 07:06:48;;;;;;;;;3.33;3.33;;;;;11.69;73.05;100372.53;5033537;28;9359;-65
2022/11/08 07:09:15;;;;;;;;;3.00;3.00;;;;;11.58;73.10;100377.50;5046059;28;9383;-65
2022/11/08 07:11:41;;;;;;;;;1.00;1.00;;;;;11.56;72.79;100389.56;5048920;28;9439;-65
2022/11/08 07:14:08;;;;;;;;;2.00;2.00;;;;;11.61;72.83;100377.09;5043585;28;9392;-65
2022/11/08 07:16:34;;;;;;;;;2.00;2.00;;;;;11.67;72.77;100377.28;5034321;28;9391;-65
2022/11/08 07:19:00;;;;;;;;;2.00;1.33;;;;;11.56;72.74;100373.41;5049031;28;9465;-65
2022/11/08 07:21:27;;;;;;;;;2.00;2.00;;;;;11.62;72.73;100369.84;5048521;28;9390;-66
2022/11/08 07:23:53;;;;;;;;;1.00;1.00;;;;;11.66;72.30;100370.25;5041081;28;9298;-65
2022/11/08 07:26:20;;;;;;;;;1.00;1.00;;;;;11.63;72.72;100358.03;5048363;28;9498;-65
2022/11/08 07:28:46;;;;;;;;;2.00;2.00;;;;;11.64;72.13;100359.69;5051334;28;9332;-66
2022/11/08 07:31:12;;;;;;;;;2.00;2.00;;;;;11.72;72.04;100353.22;5047319;28;9401;-65
2022/11/08 07:33:39;;;;;;;;;1.00;1.00;;;;;11.76;72.21;100355.28;5046307;28;9482;-66
2022/11/08 07:36:06;;;;;;;;;1.33;1.33;;;;;11.75;71.80;100359.03;5052404;28;9470;-66
2022/11/08 07:38:32;;;;;;;;;3.25;2.75;;;;;11.70;71.96;100360.69;5052898;28;9327;-66
2022/11/08 07:41:00;;;;;;;;;2.00;2.00;;;;;11.72;71.86;100367.53;5051392;28;9389;-67
2022/11/08 07:43:27;;;;;;;;;2.00;2.00;;;;;11.79;71.73;100365.66;5045041;28;9255;-65
2022/11/08 07:46:00;;;;;;;;;1.00;1.00;;;;;11.82;71.47;100384.06;5049212;28;9521;-66
2022/11/08 07:48:28;;;;;;;;;1.00;1.00;;;;;11.86;71.41;100379.13;5046126;28;10524;-66
2022/11/08 07:50:54;;;;;;;;;1.00;1.00;;;;;11.87;71.48;100395.09;5038884;28;9445;-66
2022/11/08 07:53:22;;;;;;;;;2.00;2.00;;;;;11.78;71.53;100385.53;5038558;28;9444;-66
2022/11/08 07:55:48;;;;;;;;;3.00;1.67;;;;;11.81;71.33;100382.44;5055454;28;9312;-66
2022/11/08 07:58:15;;;;;;;;;1.00;1.00;;;;;11.85;71.75;100381.00;5045807;28;9377;-66
2022/11/08 08:00:43;;;;;;;;;1.00;1.00;;;;;11.85;71.63;100385.56;5040444;28;9239;-66
2022/11/08 08:03:12;;;;;;;;;1.50;1.50;;;;;11.78;71.38;100388.25;5043339;28;9389;-66
2022/11/08 08:05:43;;;;;;;;;0.33;0.33;;;;;11.83;71.50;100390.34;5037688;28;9389;-66
2022/11/08 08:08:12;;;;;;;;;2.00;2.00;;;;;11.74;71.40;100387.00;5049738;28;9390;-66
2022/11/08 08:10:39;;;;;;;;;3.00;1.33;;;;;11.82;71.33;100373.28;5036121;28;9381;-66
2022/11/08 08:13:05;;;;;;;;;1.00;1.00;;;;;11.80;71.60;100391.56;5042605;28;9304;-66
2022/11/08 08:15:32;;;;;;;;;1.33;1.33;;;;;11.79;71.56;100376.44;5048251;28;9363;-66
2022/11/08 08:18:01;;;;;;;;;5.00;2.00;;;;;11.76;71.45;100376.84;5051969;28;10086;-66
2022/11/08 08:20:28;;;;;;;;;2.00;2.00;;;;;11.75;71.80;100372.50;5050732;28;9416;-65
2022/11/08 08:22:55;;;;;;;;;1.33;1.33;;;;;11.74;71.67;100360.03;5049855;28;9392;-65
2022/11/08 08:25:22;;;;;;;;;2.75;2.75;;;;;11.79;71.42;100359.44;5041775;28;9458;-65
2022/11/08 08:27:50;;;;;;;;;1.75;1.75;;;;;11.79;71.70;100370.22;5051369;28;9450;-65
2022/11/08 08:30:18;;;;;;;;;6.75;3.75;;;;;11.84;71.91;100365.03;5041161;28;9551;-65
2022/11/08 08:32:45;;;;;;;;;1.00;1.00;;;;;11.88;71.38;100361.69;5052138;28;9527;-65
2022/11/08 08:35:27;;;;;;;;;2.00;2.00;;;;;11.84;71.61;100362.34;5044275;28;9571;-65
2022/11/08 08:37:57;;;;;;;;;1.33;1.33;;;;;11.79;71.77;100379.13;5037015;28;9413;-65
2022/11/08 08:40:24;;;;;;;;;1.00;1.00;;;;;11.85;71.18;100380.16;5049829;28;9186;-65
2022/11/08 08:42:50;;;;;;;;;2.67;2.00;;;;;11.89;71.62;100381.38;5051237;28;10272;-67
2022/11/08 08:45:17;;;;;;;;;1.00;1.00;;;;;11.97;71.40;100369.53;5045147;28;9343;-64
2022/11/08 08:47:43;;;;;;;;;1.00;1.00;;;;;11.97;71.36;100378.44;5045995;28;9399;-64
2022/11/08 08:50:10;;;;;;;;;3.00;1.50;;;;;11.93;71.43;100379.09;5044937;28;9373;-65
2022/11/08 08:52:36;;;;;;;;;2.00;1.75;;;;;11.94;71.33;100375.34;5043709;28;9378;-65
2022/11/08 08:55:02;;;;;;;;;1.00;1.00;;;;;11.81;71.59;100360.03;5035934;28;9344;-64
2022/11/08 08:57:29;;;;;;;;;2.00;2.00;;;;;11.92;71.41;100348.59;5050855;28;9449;-65
2022/11/08 08:59:56;;;;;;;;;2.00;2.00;;;;;12.04;71.39;100348.75;5049665;28;10812;-65
2022/11/08 09:02:42;;;;;;;;;2.33;2.00;;;;;12.09;71.20;100355.13;5051495;28;9361;-65
2022/11/08 09:05:10;;;;;;;;;1.00;1.00;;;;;12.12;71.22;100351.19;5050995;28;9382;-65
2022/11/08 09:07:37;;;;;;;;;3.25;3.25;;;;;12.11;71.18;100344.97;5050763;28;9380;-65
2022/11/08 09:10:05;;;;;;;;;2.00;2.00;;;;;12.11;71.15;100350.38;5049347;28;9529;-64
2022/11/08 09:12:32;;;;;;;;;2.50;2.25;;;;;12.08;71.23;100348.09;5050700;28;9531;-66
2022/11/08 09:14:58;;;;;;;;;2.25;2.00;;;;;12.05;71.22;100339.59;5051218;28;9573;-65
2022/11/08 09:17:26;;;;;;;;;1.67;1.67;;;;;12.14;71.04;100338.31;5049745;28;9474;-65
2022/11/08 09:19:53;;;;;;;;;1.00;1.00;;;;;12.09;71.31;100354.31;5050272;28;9435;-65
2022/11/08 09:22:22;;;;;;;;;1.00;1.00;;;;;12.05;71.31;100345.00;5051527;28;9422;-65
2022/11/08 09:24:49;;;;;;;;;4.33;2.00;;;;;12.13;71.21;100344.75;5051181;28;9301;-65
2022/11/08 09:27:15;;;;;;;;;2.00;1.00;;;;;12.21;71.04;100344.50;5051264;28;9375;-65
2022/11/08 09:29:42;;;;;;;;;2.00;2.00;;;;;12.20;70.80;100350.94;5049534;28;9442;-65
2022/11/08 09:32:08;;;;;;;;;4.75;2.00;;;;;12.22;70.79;100340.75;5051420;28;10061;-65
2022/11/08 09:34:34;;;;;;;;;1.33;1.33;;;;;12.28;70.77;100342.59;5050895;28;9458;-65
2022/11/08 09:37:01;;;;;;;;;2.00;2.00;;;;;12.23;70.87;100355.88;5051114;28;9291;-65
2022/11/08 09:39:27;;;;;;;;;4.00;1.33;;;;;12.17;70.61;100369.44;5050208;28;9413;-65
2022/11/08 09:42:10;;;;;;;;;4.33;2.00;;;;;12.24;70.88;100364.84;5049998;28;9398;-65
2022/11/08 09:45:09;;;;;;;;;4.00;4.00;;;;;12.15;70.83;100347.22;5050509;28;9568;-65
2022/11/08 09:47:39;;;;;;;;;2.00;2.00;;;;;12.25;70.81;100352.97;5050586;28;9353;-65
2022/11/08 09:50:27;;;;;;;;;3.00;3.00;;;;;12.23;70.85;100357.75;5044219;28;9464;-64
2022/11/08 09:53:11;;;;;;;;;1.00;1.00;;;;;12.32;70.41;100361.88;5030613;28;9412;-66
2022/11/08 09:55:43;;;;;;;;;2.75;2.75;;;;;12.29;70.71;100354.22;5030599;28;9324;-66
2022/11/08 09:58:39;;;;;;;;;4.67;4.67;;;;;12.30;70.58;100358.56;5030773;28;10151;-64
2022/11/08 10:01:11;;;;;;;;;3.50;3.50;;;;;12.35;70.52;100354.16;5042402;28;9454;-65
2022/11/08 10:03:42;;;;;;;;;2.00;2.00;;;;;12.34;70.22;100312.00;5050540;28;9465;-65
2022/11/08 10:06:28;;;;;;;;;2.00;2.00;;;;;12.35;70.20;100297.47;5049803;28;10104;-65
2022/11/08 10:09:13;;;;;;;;;1.00;1.00;;;;;12.31;70.47;100333.22;5050637;28;9393;-65
2022/11/08 10:12:17;;;;;;;;;4.00;4.00;;;;;12.35;70.58;100337.13;5048579;28;9377;-65
2022/11/08 10:14:53;;;;;;;;;6.33;6.33;;;;;12.42;70.30;100343.31;5049488;28;9372;-65
2022/11/08 10:17:38;;;;;;;;;3.50;3.50;;;;;12.38;70.43;100342.09;5031568;28;10205;-65
2022/11/08 10:20:28;;;;;;;;;8.33;3.67;;;;;12.39;70.52;100332.94;5049327;28;9477;-65
2022/11/08 10:23:13;;;;;;;;;2.00;2.00;;;;;12.31;70.26;100347.53;5021899;28;9295;-65
2022/11/08 10:25:54;;;;;;;;;2.33;2.33;;;;;12.30;70.50;100348.56;5048120;28;9242;-65
2022/11/08 10:28:28;;;;;;;;;2.00;2.00;;;;;12.47;70.01;100351.56;5050145;28;10108;-65
2022/11/08 10:30:55;;;;;;;;;5.00;3.00;;;;;12.40;69.88;100342.72;5048015;28;9247;-65
2022/11/08 10:33:41;;;;;;;;;2.00;2.00;;;;;12.56;69.45;100342.19;5049922;28;9360;-65
2022/11/08 10:36:19;;;;;;;;;1.67;1.67;;;;;12.56;69.54;100341.34;5049919;28;9229;-65
2022/11/08 10:38:52;;;;;;;;;3.00;2.00;;;;;12.59;69.49;100347.13;5038096;28;9331;-65
2022/11/08 10:41:24;;;;;;;;;3.00;1.00;;;;;12.66;69.47;100348.97;5031449;28;10105;-65
2022/11/08 10:44:01;;;;;;;;;2.00;2.00;;;;;12.76;69.30;100355.53;5030071;28;9240;-66
2022/11/08 10:46:47;;;;;;;;;4.33;2.00;;;;;12.73;69.35;100364.06;5030941;28;9134;-66
2022/11/08 10:49:25;;;;;;;;;4.00;4.00;;;;;12.70;69.32;100351.00;5044867;28;9246;-66
2022/11/08 10:51:54;;;;;;;;;3.00;2.67;;;;;12.76;69.41;100363.63;5048819;28;9299;-66
2022/11/08 10:54:41;;;;;;;;;3.00;2.00;;;;;12.78;69.17;100360.69;5049930;28;9786;-66
2022/11/08 10:57:30;;;;;;;;;3.33;3.33;;;;;12.80;69.34;100378.34;5030222;28;9162;-66
2022/11/08 11:00:20;;;;;;;;;3.00;3.00;;;;;12.79;69.42;100379.38;5032682;28;9056;-65
2022/11/08 11:02:52;;;;;;;;;2.00;2.00;;;;;12.85;68.92;100369.56;5043254;28;9108;-66
2022/11/08 11:05:22;;;;;;;;;2.67;2.00;;;;;12.87;69.23;100354.78;5053008;28;9188;-66
2022/11/08 11:07:51;;;;;;;;;2.00;2.00;;;;;12.95;68.90;100340.16;5052516;28;9103;-66
2022/11/08 11:10:36;;;;;;;;;2.00;2.00;;;;;12.87;69.17;100356.66;5043563;28;9962;-66
2022/11/08 11:13:09;;;;;;;;;5.00;2.00;;;;;12.93;68.93;100347.69;5052889;28;9161;-66
2022/11/08 11:15:52;;;;;;;;;2.00;2.00;;;;;12.97;68.95;100354.31;5052960;28;9148;-65
2022/11/08 11:18:27;;;;;;;;;2.00;2.00;;;;;13.08;68.87;100358.13;5052192;28;9231;-65
2022/11/08 11:21:13;;;;;;;;;5.33;3.00;;;;;13.19;68.81;100343.06;5034298;28;9296;-66
2022/11/08 11:23:46;;;;;;;;;2.00;2.00;;;;;13.18;68.84;100344.13;5048983;28;9071;-66
2022/11/08 11:26:28;;;;;;;;;2.00;2.00;;;;;13.09;68.86;100340.91;5039315;28;9077;-66
2022/11/08 11:29:04;;;;;;;;;4.25;4.25;;;;;13.19;68.69;100352.00;5031830;28;8989;-65
2022/11/08 11:31:39;;;;;;;;;2.33;2.00;;;;;13.28;68.23;100347.97;5048915;28;8960;-66
2022/11/08 11:34:34;;;;;;;;;2.00;2.00;;;;;13.24;68.44;100341.38;5052943;28;9008;-66
2022/11/08 11:37:17;;;;;;;;;2.67;2.67;;;;;13.17;68.56;100337.91;5048354;28;9112;-65
2022/11/08 11:39:48;;;;;;;;;1.00;1.00;;;;;13.25;68.07;100332.22;5033791;28;9036;-65
2022/11/08 11:42:33;;;;;;;;;2.25;2.25;;;;;13.28;68.23;100344.44;5052411;28;8834;-66
2022/11/08 11:45:20;;;;;;;;;3.33;3.33;;;;;13.33;68.22;100344.63;5036980;28;8830;-66
2022/11/08 11:47:54;;;;;;;;;3.33;3.33;;;;;13.34;68.08;100347.09;5046723;28;8922;-66
2022/11/08 11:50:37;;;;;;;;;5.00;4.00;;;;;13.40;67.97;100347.25;5038752;28;8994;-66
2022/11/08 11:53:23;;;;;;;;;1.33;1.33;;;;;13.58;67.74;100344.56;5051858;28;8984;-66
2022/11/08 11:56:32;;;;;;;;;3.00;3.00;;;;;13.59;67.97;100340.78;5032661;28;8952;-65
2022/11/08 11:59:07;;;;;;;;;2.00;2.00;;;;;13.68;67.68;100338.59;5012943;28;9586;-65
2022/11/08 12:01:55;;;;;;;;;2.33;2.33;;;;;13.70;67.99;100331.91;5049784;28;8945;-65
2022/11/08 12:04:27;;;;;;;;;2.00;2.00;;;;;13.80;67.87;100331.38;5032491;28;9232;-64
2022/11/08 12:07:10;;;;;;;;;2.00;2.00;;;;;13.84;67.60;100327.97;5044421;28;9082;-65